Tiempo atmosférico en la estación meteorológica de Madridejos, Toledo (690 m.)



Fecha
DESCASC
Temp. máxima en grados centígrados (hora)
DESCASC
Temp. mínima en grados centígrados (hora)
DESCASC
Temp. media en grados centígrados
DESCASC
Racha de viento máxima en m/sg (hora)
DESCASC
Velocidad máxima media en intervalos de 10 minutos(hora)
DESCASC
Precipitaciones diarias en mm
DESCASC
Precipitaciones de 00:00 a 06:00 en mm
DESCASC
Precipitaciones de 06:00 a 12:00 en mm
DESCASC
Precipitaciones de 12:00 a 18:00 en mm
DESCASC
Precipitaciones de 18:00 a 24:00 en mm
DESCASC
06-12-2018 17 (16:10) 2.7 (23:59) 9.9 8.06 (05:20) 3.89 (04:00) -- -- -- -- --
05-12-2018 19.3 (15:20) 1.5 (08:30) 10.4 7.5 (17:10) 4.72 (17:10) -- -- -- -- --
04-12-2018 18 (16:30) -0.1 (08:00) 8.9 5.83 (12:00) 3.61 (11:30) -- -- -- -- --
03-12-2018 11.8 (14:50) 3.2 (00:00) 7.5 7.22 (15:40) 3.33 (13:10) -- -- -- -- --
02-12-2018 14.6 (15:30) 1.5 (00:00) 8.1 6.11 (05:00) 3.33 (12:10) -- -- -- -- --
01-12-2018 13.4 (14:50) -0.3 (00:00) 6.5 9.17 (14:50) 4.17 (15:20) -- -- -- -- --
30-11-2018 11.5 (15:40) 2.4 (00:00) 7 10.83 (14:00) 6.67 (11:30) -- -- -- -- --
29-11-2018 16.3 (16:00) -1.1 (-00:0) 7.6 9.17 (15:50) 4.72 (12:40) -- -- -- -- --
28-11-2018 13.1 (15:40) -1 (-00:0) 6.1 6.11 (12:40) 3.89 (13:10) -- -- -- -- --
27-11-2018 13.9 (15:30) 2 (00:00) 7.9 8.89 (14:50) 4.17 (03:40) -- -- -- -- --
25-11-2018 14.2 (13:00) 7.8 (00:00) 11 14.44 (15:20) 8.89 (12:50) -- -- -- -- --
24-11-2018 12 (15:30) 0 (00:00) 6 9.17 (15:20) 5.28 (23:59) -- -- -- -- --
23-11-2018 12.4 (15:00) 3.9 (00:00) 8.1 9.72 (16:10) 5.56 (16:20) -- -- -- -- --
22-11-2018 11.1 (15:20) 5.4 (00:00) 8.3 8.06 (16:50) 3.33 (15:10) -- -- -- -- --
21-11-2018 13.6 (14:10) 5.7 (00:00) 9.7 12.5 (15:50) 6.67 (13:40) -- -- -- -- --
20-11-2018 -- (--) -- (--) -- -- (--) -- (--) -- -- -- -- --
19-11-2018 11.4 (16:10) 8.2 (00:00) 9.8 -- (--) -- (--) -- -- -- -- --
18-11-2018 12.9 (15:20) 7.4 (00:00) 10.1 -- (--) -- (--) -- -- -- -- --
17-11-2018 17.4 (15:20) 7.6 (00:00) 12.5 -- (--) -- (--) -- -- -- -- --
16-11-2018 16.6 (15:30) 10.3 (00:00) 13.5 12.78 (12:50) 7.78 (15:40) -- -- -- -- --
15-11-2018 15.7 (14:00) 9.5 (00:00) 12.6 -- (--) -- (--) -- -- -- -- --
14-11-2018 16.9 (14:50) 10.3 (00:00) 13.6 13.06 (15:40) 7.22 (09:50) -- -- -- -- --
13-11-2018 16.5 (15:50) 6.5 (00:00) 11.5 10.56 (13:20) 6.11 (17:10) -- -- -- -- --
12-11-2018 16.3 (16:10) 7.5 (00:00) 11.9 -- (--) -- (--) -- -- -- -- --
11-11-2018 17.3 (15:30) 9.4 (00:00) 13.3 -- (--) -- (--) -- -- -- -- --
10-11-2018 13 (16:00) 9 (00:00) 11 -- (--) -- (--) -- -- -- -- --

Gráficas

Temp. máximas Temp. mínimas Temp. medias Precipitaciones Rachas de viento máximas Velocidades máximas media en intervalos de 10 minutos

Datos horarios

Fecha y hora oficial Temperatura (ºC) Velocidad del viento (km/h) Dirección del viento Racha (km/h) Dirección de racha Precipitación (mm) Presión (hPa) Tendencia (hPa) Humedad (%)
2018-12-09 23:00:00 4.7 3 Oeste 5 Noroeste 0 949.9 0.7 79
2018-12-09 22:00:00 5.3 6 Oeste 12 Norte 0 949.5 0.8 78
2018-12-09 21:00:00 6.7 4 Oeste 14 Norte 0 949.4 1.1 72
2018-12-09 20:00:00 7.8 9 Noroeste 14 Norte 0 949.2 1.2 69
2018-12-09 19:00:00 10.7 7 Noroeste 19 Norte 0 948.7 1 59
2018-12-09 18:00:00 14.3 7 Norte 21 Norte 0 948.3 0.3 45
2018-12-09 17:00:00 16.4 12 Norte 22 Norte 0 948 -0.4 41
2018-12-09 16:00:00 16.8 6 Norte 20 Norte 0 947.7 -1.4 42
2018-12-09 15:00:00 16.3 8 Norte 23 Norte 0 948 -1.8 42
2018-12-09 14:00:00 15.4 5 Norte 18 Norte 0 948.4 -1.6 43
2018-12-09 13:00:00 14.1 4 Noroeste 12 Oeste 0 949.1 -0.3 48
2018-12-09 12:00:00 11.3 2 Sudeste 21 Nordeste 0 949.8 0.5 68
2018-12-09 11:00:00 7.3 4 Nordeste 18 Nordeste 0 950 0.8 79
2018-12-09 10:00:00 3.8 3 Nordeste 16 Sudoeste 0 949.4 0.4 89
2018-12-09 09:00:00 0.2 6 Sur 17 Sudoeste 0 949.3 0.5 87
2018-12-09 08:00:00 0.6 3 Sur 13 Sudoeste 0 949.2 0.1 87
2018-12-09 07:00:00 0.6 3 Sudeste 12 Sur 0 949 -0.3 86
2018-12-09 06:00:00 1 2 Sudeste 14 Sudoeste 0 948.8 -0.2 86
2018-12-09 05:00:00 1.2 3 Sur 14 Sudoeste 0 949.1 0.1 86
2018-12-09 04:00:00 0.8 6 Noroeste 14 Oeste 0 949.3 0.1 86
2018-12-09 03:00:00 1.7 3 Oeste 14 Sudoeste 0 949 -0.3 84
2018-12-09 02:00:00 2 6 Sudoeste 12 Oeste 0 949 -0.1 84
2018-12-09 01:00:00 2.3 8 Oeste 10 Oeste 0 949.2 0.3 84
2018-12-09 00:00:00 2.5 8 Oeste 10 Oeste 0 949.3 0.3 82
2018-12-08 23:00:00 3.5 7 Oeste 12 Oeste 0 949.1 0.4 80
2018-12-08 22:00:00 4.8 8 Sudoeste 12 Sudoeste 0 948.9 0.6 80
2018-12-08 21:00:00 5.2 6 Sudoeste 10 Sudoeste 0 949 1.2 80
2018-12-08 20:00:00 6.4 7 Sudoeste 16 Sudoeste 0 948.7 1.1 78
2018-12-08 19:00:00 8 8 Norte 14 Oeste 0 948.3 1.1 70
2018-12-08 18:00:00 11.3 5 Noroeste 18 Norte 0 947.8 0.1 61
2018-12-08 17:00:00 12.9 10 Noroeste 23 Norte 0 947.6 -0.8 54
2018-12-08 16:00:00 13.3 10 Noroeste 21 Norte 0 947.2 -1.3 53
2018-12-08 15:00:00 13.4 10 Norte 30 Nordeste 0 947.7 -1.1 54
2018-12-08 14:00:00 13.4 13 Noroeste 23 Noroeste 0 948.4 -0.2 56
2018-12-08 13:00:00 12.8 9 Noroeste 18 Norte 0 948.5 0 61
2018-12-08 12:00:00 11.3 8 Noroeste 15 Norte 0 948.8 0.9 68
2018-12-08 11:00:00 6.8 6 Oeste 20 Oeste 0 948.6 1.3 89
2018-12-08 10:00:00 3.6 5 Noroeste 18 Oeste 0 948.5 1.6 90
2018-12-08 09:00:00 2.8 7 Oeste 12 Sudoeste 0 947.9 1.4 90
2018-12-08 08:00:00 1.9 9 Sudoeste 19 Oeste 0 947.3 0.5 89
2018-12-08 07:00:00 2.7 4 Sur 16 Este 0 946.9 -0.1 89
2018-12-08 06:00:00 3.1 6 Sudoeste 19 Oeste 0 946.5 -0.2 89
2018-12-08 05:00:00 3.4 6 Oeste 20 Oeste 0 946.8 0 87
2018-12-08 04:00:00 4.7 6 Noroeste 18 Sudoeste 0 947 0 85
2018-12-08 03:00:00 5.6 9 Oeste 13 Oeste 0.2 946.7 -0.3 85
2018-12-08 02:00:00 6.4 7 Oeste 11 Oeste 0 946.8 -0.4 86
2018-12-08 01:00:00 6.4 6 Sudoeste 12 Oeste 0 947 -0.2 87
2018-12-08 00:00:00 5.8 6 Sudoeste 14 Oeste 0 947 0.1 86
2018-12-07 23:00:00 6.4 8 Oeste 14 Oeste 0 947.2 1 87
2018-12-07 22:00:00 5.7 9 Oeste 13 Oeste 0 947.2 1.2 86
2018-12-07 21:00:00 6.6 8 Oeste 13 Sudoeste 0 946.9 1.2 85
2018-12-07 20:00:00 9.2 3 Norte 12 Noroeste 0 946.2 0.9 78
2018-12-07 19:00:00 9.9 3 Norte 21 Nordeste 0 946 0.8 79
2018-12-07 18:00:00 12.1 4 Sur 18 Sur 0 945.7 0.1 73
2018-12-07 17:00:00 15.5 6 Sudeste 16 Sudeste 0 945.3 -1.1 61
2018-12-07 16:00:00 17.3 7 Sudeste 18 Norte 0 945.2 -1.6 52
2018-12-07 15:00:00 16.9 12 Norte 26 Oeste 0 945.6 -2.1 44
2018-12-07 14:00:00 16 6 Oeste 18 Oeste 0 946.4 -1.1 57
2018-12-07 13:00:00 13.6 4 Sudoeste 19 Este 0 946.8 -0.3 62
2018-12-07 12:00:00 9.5 10 Sudeste 20 Norte 0 947.7 0.9 79
2018-12-07 11:00:00 5.5 2 Este 13 Nordeste 0 947.5 1.1 89
2018-12-07 10:00:00 1.9 3 Sudeste 5 Sudeste 0 947.1 1 91
2018-12-07 09:00:00 -1.1 3 Sudeste 13 Sur 0 946.8 0.4 91
2018-12-07 08:00:00 0.6 4 Sudeste 16 Sudoeste 0 946.4 0.2 91
2018-12-07 07:00:00 1.1 6 Sur 15 Sudoeste 0 946.1 -0.3 91
2018-12-07 06:00:00 0.6 3 Nordeste 17 Este 0 946.4 -0.1 90
2018-12-07 05:00:00 0.2 4 Noroeste 16 Oeste 0 946.2 -0.4 90
2018-12-07 04:00:00 1 5 Sudoeste 10 Oeste 0 946.4 -0.5 90
2018-12-07 03:00:00 1.9 6 Sudoeste 11 Sudoeste 0 946.5 -0.6 89
2018-12-07 02:00:00 3.3 10 Sudoeste 14 Sudoeste 0 946.6 -0.6 90
2018-12-07 01:00:00 3.2 9 Sudoeste 21 Oeste 0 946.9 -0.1 89
2018-12-07 00:00:00 2.8 5 Oeste 18 Oeste 0 947.1 0.1 86
2018-12-06 23:00:00 4.7 6 Sudoeste 16 Sudoeste 0 947.2 0.3 85
2018-12-06 22:00:00 5.4 5 Oeste 10 Sudoeste 0 947 0.4 84
2018-12-06 21:00:00 7 7 Sudoeste 11 Sudoeste 0 947 0.7 84
2018-12-06 20:00:00 8.7 3 Oeste 14 Oeste 0 946.9 0.6 79
2018-12-06 19:00:00 11.3 5 Norte 18 Norte 0 946.6 0 70
2018-12-06 18:00:00 14.6 9 Norte 19 Norte 0 946.3 -0.7 60
2018-12-06 17:00:00 16.2 5 Noroeste 19 Norte 0 946.3 -1 54
2018-12-06 16:00:00 16.4 10 Norte 21 Norte 0 946.6 -1 57
2018-12-06 15:00:00 15.9 9 Norte 24 Norte 0 947 -1.3 57
2018-12-06 14:00:00 15.3 10 Norte 23 Norte 0 947.3 -1.1 58
2018-12-06 13:00:00 14.2 11 Noroeste 19 Norte 0 947.6 -0.2 63
2018-12-06 12:00:00 12.7 0 Calma 17 Este 0 948.3 0.8 67
2018-12-06 11:00:00 10.7 4 Este 17 Sudoeste 0 948.4 1.2 82
2018-12-06 10:00:00 5.9 3 Sudoeste 19 Sudoeste 0 947.8 0.9 88
2018-12-06 09:00:00 3.5 8 Sudeste 19 Este 0 947.5 0.8 88
2018-12-06 08:00:00 3.7 7 Este 18 Este 0 947.2 0.7 86
2018-12-06 07:00:00 3.7 6 Este 18 Este 0 946.9 -0.2 84
2018-12-06 06:00:00 6.5 6 Oeste 29 Oeste 0 946.7 -0.3 82
2018-12-06 05:00:00 6.5 10 Oeste 18 Oeste 0 946.5 -0.4 83
2018-12-06 04:00:00 5.4 14 Oeste 18 Oeste 0 947.1 0 87
2018-12-06 03:00:00 4.6 7 Oeste 11 Oeste 0 947 0.2 86
2018-12-06 02:00:00 5.3 5 Sudoeste 13 Oeste 0 946.9 0.7 85
2018-12-06 01:00:00 6.2 8 Oeste 22 Norte 0 947.1 0.9 85
2018-12-06 00:00:00 4.9 7 Noroeste 13 Norte 0 946.8 0.4 85
2018-12-05 23:00:00 6.3 6 Sudoeste 22 Sudoeste 0 946.2 0.5 82
2018-12-05 22:00:00 7.7 8 Sudoeste 22 Sudoeste 0 946.2 0.9 81
2018-12-05 21:00:00 7.8 6 Noroeste 13 Noroeste 0 946.4 1.4 80
2018-12-05 20:00:00 9 8 Noroeste 17 Oeste 0 945.7 0.7 79
2018-12-05 19:00:00 12.3 14 Norte 19 Nordeste 0 945.3 0.9 70
2018-12-05 18:00:00 15.5 12 Norte 27 Norte 0 945 0.2 60
2018-12-05 17:00:00 18.6 10 Norte 24 Norte 0 945 0 49
2018-12-05 16:00:00 19.2 9 Este 20 Norte 0 944.4 -1.1 46
2018-12-05 15:00:00 18.6 6 Sudeste 19 Este 0 944.8 -1.2 51
2018-12-05 14:00:00 17.4 9 Sudeste 18 Sur 0 945 -1 52
2018-12-05 13:00:00 15.2 3 Sudeste 7 Sudeste 0 945.5 -0.1 61
2018-12-05 12:00:00 12.9 4 Sudeste 21 Este 0 946 0.7 70
2018-12-05 11:00:00 9.5 11 Sudeste 23 Este 0 946 1.1 79
2018-12-05 10:00:00 5.9 8 Sur 21 Sur 0 945.6 1.2 92
2018-12-05 09:00:00 2.3 8 Sur 19 Sudoeste 0.2 945.3 1.3 90
2018-12-05 08:00:00 1.6 6 Noroeste 20 Sur 0 944.9 0.9 89
2018-12-05 07:00:00 4.1 9 Sur 22 Sur 0 944.4 0.4 89
2018-12-05 06:00:00 3.9 7 Sur 19 Sur 0 944 0.1 89
2018-12-05 05:00:00 4.3 7 Sudeste 18 Este 0 944 0.1 88
2018-12-05 04:00:00 4.8 5 Sudeste 19 Este 0 944 -0.1 84
2018-12-05 03:00:00 5.3 5 Este 18 Este 0 943.9 -0.2 84
2018-12-05 02:00:00 5.5 3 Sudeste 17 Este 0 943.9 -0.2 81
2018-12-05 01:00:00 6.5 7 Sudoeste 25 Sudoeste 0 944.1 0.2 79
2018-12-05 00:00:00 6.3 5 Sur 21 Sur 0 944.1 0.4 81
2018-12-04 23:00:00 5.9 3 Sudoeste 10 Norte 0 944.1 0.8 83
2018-12-04 22:00:00 7.3 5 Oeste 21 Norte 0 943.9 0.9 82
2018-12-04 21:00:00 8.3 3 Noroeste 13 Oeste 0 943.7 0.9 78
2018-12-04 20:00:00 10 5 Oeste 13 Sur 0 943.3 0.6 72
2018-12-04 19:00:00 12.5 4 Sudeste 16 Este 0 943 0.4 65
2018-12-04 18:00:00 15.4 7 Sudeste 17 Este 0 942.8 0 57
2018-12-04 17:00:00 16.9 9 Sur 19 Sur 0 942.7 -0.6 51
2018-12-04 16:00:00 17.3 10 Sudeste 20 Sudeste 0 942.6 -1.4 47
2018-12-04 15:00:00 16.8 7 Sudeste 19 Este 0 942.8 -1.9 45
2018-12-04 14:00:00 15.5 7 Sudeste 20 Sur 0 943.3 -1.5 51
2018-12-04 13:00:00 13.2 7 Sudeste 21 Este 0 944 -0.5 65
2018-12-04 12:00:00 10.4 8 Sudeste 21 Este 0 944.7 0.7 87
2018-12-04 11:00:00 7.4 6 Este 17 Oeste 0 944.8 1.2 94
2018-12-04 10:00:00 2.7 5 Oeste 17 Oeste 0 944.5 1.4 94
2018-12-04 09:00:00 0.5 4 Oeste 10 Nordeste 0 944 0.9 93
2018-12-04 08:00:00 0 3 Oeste 10 Norte 0 943.6 0.5 93
2018-12-04 07:00:00 0.1 4 Oeste 14 Nordeste 0 943.1 -0.3 93
2018-12-04 06:00:00 0.3 6 Norte 9 Norte 0 943.1 -0.7 93
2018-12-04 05:00:00 0.3 5 Noroeste 16 Oeste 0 943.1 -0.8 92
2018-12-04 04:00:00 0.8 0 Calma 13 Nordeste 0 943.4 -0.9 92
2018-12-04 03:00:00 0.8 3 Noroeste 15 Oeste 0 943.8 -0.5 92
2018-12-04 02:00:00 1.1 5 Oeste 17 Oeste 0 943.9 -0.5 91
2018-12-04 01:00:00 2.6 5 Sur 16 Sur 0 944.3 -0.3 91
2018-12-04 00:00:00 3.4 6 Sudeste 17 Este 0 944.3 -0.3 92
2018-12-03 23:00:00 3.5 3 Oeste 18 Sudoeste 0 944.4 0.1 91
2018-12-03 22:00:00 4.1 5 Sudoeste 16 Oeste 0 944.6 0.8 90
2018-12-03 21:00:00 4.8 3 Oeste 14 Oeste 0 944.6 1.1 88
2018-12-03 20:00:00 5.6 3 Noroeste 4 Norte 0 944.3 0.8 86
2018-12-03 19:00:00 6.8 4 Norte 8 Norte 0 943.8 0.6 85
2018-12-03 18:00:00 8.3 4 Norte 22 Norte 0 943.5 0.4 82
2018-12-03 17:00:00 9.6 7 Norte 16 Noroeste 0 943.5 -0.1 79
2018-12-03 16:00:00 10.6 7 Norte 26 Nordeste 0 943.2 -0.4 75
2018-12-03 15:00:00 11.5 4 Nordeste 12 Noroeste 0 943.1 -1.2 73
2018-12-03 14:00:00 10.3 4 Norte 21 Sur 0 943.6 -0.7 75
2018-12-03 13:00:00 9.3 8 Sudoeste 22 Sur 0 943.6 -0.6 83
2018-12-03 12:00:00 8 9 Sur 20 Sudoeste 0 944.3 0.5 92
2018-12-03 11:00:00 6.5 6 Sudoeste 19 Sudoeste 0 944.3 0.3 93
2018-12-03 10:00:00 6.1 5 Norte 15 Oeste 0 944.2 0.6 94
2018-12-03 09:00:00 5.9 4 Sudoeste 18 Sudoeste 0 943.8 0.3 94
2018-12-03 08:00:00 5.7 4 Noroeste 20 Oeste 0 944 0.5 94
2018-12-03 07:00:00 5.8 5 Noroeste 12 Noroeste 0.2 943.6 -0.5 94
2018-12-03 06:00:00 5.3 5 Noroeste 20 Oeste 0 943.5 -0.5 94
2018-12-03 05:00:00 4.9 8 Noroeste 19 Oeste 0 943.5 -0.4 94
2018-12-03 04:00:00 5.1 4 Noroeste 14 Noroeste 0 944.1 -0.2 94
2018-12-03 03:00:00 5 9 Noroeste 14 Noroeste 0 944 -0.1 94
2018-12-03 02:00:00 5.4 7 Norte 13 Norte 0 943.9 0 94
2018-12-03 01:00:00 4.9 6 Norte 16 Noroeste 0 944.3 0.4 93
2018-12-03 00:00:00 4.3 6 Norte 12 Norte 0 944.1 0.3 92
2018-12-02 23:00:00 4.3 6 Noroeste 18 Oeste 0 943.9 0.4 89
2018-12-02 22:00:00 4.9 6 Oeste 9 Oeste 0 943.9 0.6 87
2018-12-02 21:00:00 6.1 5 Oeste 7 Sudoeste 0 943.8 0.9 85
2018-12-02 20:00:00 8 4 Norte 11 Norte 0 943.5 1.1 80
2018-12-02 19:00:00 9.2 6 Norte 17 Norte 0 943.3 1 79
2018-12-02 18:00:00 12.8 2 Sur 8 Sudeste 0 942.9 0.5 63
2018-12-02 17:00:00 14 5 Sudeste 10 Sur 0 942.4 -0.6 59
2018-12-02 16:00:00 14.2 4 Sudeste 12 Este 0 942.3 -1.2 57
2018-12-02 15:00:00 13.4 6 Sudeste 11 Sudeste 0 942.4 -2 57
2018-12-02 14:00:00 12.8 4 Sudeste 22 Este 0 943 -1.5 59
2018-12-02 13:00:00 11.3 9 Sudeste 22 Sur 0 943.5 -0.6 66
2018-12-02 12:00:00 9.4 11 Sudeste 21 Este 0 944.4 0.8 75
2018-12-02 11:00:00 6.8 8 Sudeste 18 Este 0 944.5 1.2 86
2018-12-02 10:00:00 4.3 6 Sudeste 14 Nordeste 0 944.1 0.9 90
2018-12-02 09:00:00 1.8 3 Sudoeste 16 Sudoeste 0 943.6 0.7 90
2018-12-02 08:00:00 2.2 6 Sur 17 Sudoeste 0 943.3 0.6 90
2018-12-02 07:00:00 1.9 4 Este 14 Nordeste 0 943.2 0.2 88
2018-12-02 06:00:00 2.7 8 Sudeste 22 Sur 0 942.9 -0.3 87
2018-12-02 05:00:00 4.2 11 Sur 22 Sur 0 942.7 -0.3 89
2018-12-02 04:00:00 3.7 10 Sur 20 Sudoeste 0 943 -0.4 88
2018-12-02 03:00:00 3.4 7 Sudeste 19 Oeste 0 943.2 -0.3 85
2018-12-02 02:00:00 4.1 6 Sudoeste 11 Sudoeste 0 943 -0.4 85
2018-12-02 01:00:00 4.7 8 Oeste 21 Oeste 0 943.4 -0.2 85
2018-12-02 00:00:00 5.2 8 Sudoeste 16 Sudoeste 0 943.5 0.1 84
2018-12-01 23:00:00 5.6 4 Sudoeste 18 Sudoeste 0 943.4 0.6 82
2018-12-01 22:00:00 5.6 10 Oeste 22 Oeste 0 943.6 0.8 81
2018-12-01 21:00:00 6.4 6 Oeste 20 Sur 0 943.4 1.1 80
2018-12-01 20:00:00 7.5 4 Sur 6 Sur 0 942.8 1 77
2018-12-01 19:00:00 8.3 3 Sudeste 17 Norte 0 942.8 1.1 74
2018-12-01 18:00:00 10 7 Norte 15 Norte 0 942.3 0.4 68
2018-12-01 17:00:00 12.4 10 Noroeste 19 Norte 0 941.8 -0.7 54
2018-12-01 16:00:00 12.7 12 Noroeste 32 Oeste 0 941.7 -1.5 49
2018-12-01 15:00:00 13.1 12 Noroeste 33 Oeste 0 941.9 -1.8 51
2018-12-01 14:00:00 12.8 8 Sudoeste 31 Oeste 0 942.5 -1.1 58
2018-12-01 13:00:00 11.3 7 Oeste 28 Oeste 0 943.2 -0.3 63
2018-12-01 12:00:00 9.6 10 Oeste 23 Oeste 0 943.7 0.7 68
2018-12-01 11:00:00 6.3 5 Sur 18 Sudoeste 0 943.6 0.9 81
2018-12-01 10:00:00 1.9 0 Calma 13 Sudoeste 0 943.5 1.1 88
2018-12-01 09:00:00 0.9 3 Sur 11 Este 0 943 1.2 88
2018-12-01 08:00:00 0.7 3 Sudeste 7 Sudeste 0 942.7 0 88
2018-12-01 07:00:00 0.8 4 Oeste 10 Este 0 942.4 -0.2 87
2018-12-01 06:00:00 1.1 5 Sur 12 Sudeste 0 941.8 -0.4 88
2018-12-01 05:00:00 0.5 4 Sudoeste 14 Oeste 0 942.7 -0.5 89
2018-12-01 04:00:00 0.2 4 Oeste 11 Este 0 942.6 -1.2 87
2018-12-01 03:00:00 1.2 4 Sudoeste 10 Sudeste 0 942.2 -1.2 87
2018-12-01 02:00:00 1.5 6 Oeste 17 Oeste 0 943.2 -0.2 85
2018-12-01 01:00:00 2.1 11 Oeste 21 Oeste 0 943.8 0.7 86
2018-12-01 00:00:00 2.4 6 Sudoeste 11 Sudoeste 0 943.4 0.8 84
2018-11-30 23:00:00 3.1 6 Oeste 19 Oeste 0 943.4 1.7 83
2018-11-30 22:00:00 4 8 Sudoeste 20 Oeste 0 943.1 1.6 82
2018-11-30 21:00:00 4.3 9 Oeste 22 Oeste 0 942.6 1.5 82
2018-11-30 20:00:00 5.2 10 Oeste 22 Oeste 0 941.7 0.7 79
2018-11-30 19:00:00 6.7 8 Oeste 18 Noroeste 0 941.5 0.9 75
2018-11-30 18:00:00 8.7 13 Noroeste 31 Noroeste 0 941.1 0.5 67
2018-11-30 17:00:00 10.4 22 Noroeste 38 Oeste 0 941 0.4 59
2018-11-30 16:00:00 11 17 Noroeste 34 Oeste 0 940.6 -0.1 57
2018-11-30 15:00:00 11.1 15 Noroeste 27 Oeste 0 940.6 -0.4 58
2018-11-30 14:00:00 10.3 16 Norte 39 Norte 0 940.6 0 58
2018-11-30 13:00:00 10 21 Noroeste 33 Noroeste 0 940.7 0.9 63
2018-11-30 12:00:00 9.6 23 Noroeste 35 Noroeste 0 941 1.8 68
2018-11-30 11:00:00 8.9 21 Noroeste 34 Noroeste 0 940.6 2.1 72
2018-11-30 10:00:00 7.1 15 Noroeste 23 Noroeste 0 939.8 1.9 85
2018-11-30 09:00:00 6.9 10 Oeste 22 Oeste 0 939.2 1.7 89
2018-11-30 08:00:00 6.7 7 Noroeste 13 Oeste 0 938.5 1 90
2018-11-30 07:00:00 6.2 7 Noroeste 25 Noroeste 0 937.9 0.2 91
2018-11-30 06:00:00 7 6 Oeste 16 Sudoeste 0 937.5 -0.4 90
2018-11-30 05:00:00 6.7 3 Norte 16 Este 0.2 937.5 -0.6 90
2018-11-30 04:00:00 6.8 2 Norte 16 Nordeste 0 937.7 -0.5 89
2018-11-30 03:00:00 6.9 3 Sudoeste 11 Oeste 1.8 937.9 -0.4 87
2018-11-30 02:00:00 7 5 Oeste 18 Sudoeste 0.2 938.1 -0.5 84
2018-11-30 01:00:00 7.4 5 Sur 22 Sur 0.2 938.2 -0.9 80
2018-11-30 00:00:00 7.5 5 Sur 19 Nordeste 0 938.3 -0.5 75
2018-11-29 23:00:00 8.1 5 Norte 27 Oeste 0.2 938.6 0.6 67
2018-11-29 22:00:00 8.2 9 Sudoeste 14 Oeste 0 939.1 1.2 64
2018-11-29 21:00:00 8 8 Oeste 13 Noroeste 0 938.8 1 65
2018-11-29 20:00:00 9.8 3 Sur 14 Sudeste 0 938 0.1 57
2018-11-29 19:00:00 10.3 4 Sur 12 Norte 0 937.9 -0.3 50
2018-11-29 18:00:00 12.3 2 Sur 32 Sudoeste 0 937.8 -0.9 40
2018-11-29 17:00:00 14.2 10 Sudoeste 32 Sudoeste 0 937.9 -1.6 36
2018-11-29 16:00:00 16.1 14 Sudoeste 33 Sudoeste 0 938.2 -1.6 27
2018-11-29 15:00:00 15.4 10 Sur 28 Sudoeste 0 938.7 -1.9 30
2018-11-29 14:00:00 13.9 6 Sudeste 25 Este 0 939.5 -1.5 45
2018-11-29 13:00:00 11.1 14 Sudeste 26 Este 0 939.8 -1.2 55
2018-11-29 12:00:00 9.8 12 Sudeste 24 Sudeste 0 940.6 -0.2 56
2018-11-29 11:00:00 6.2 10 Sudeste 19 Sur 0.2 941 0.2 75
2018-11-29 10:00:00 2.6 8 Sudeste 14 Sudeste 0 941 0 87
2018-11-29 09:00:00 -0.3 5 Sudeste 14 Sudeste 0 940.8 0 91
2018-11-29 08:00:00 -0.4 6 Sudeste 11 Sur 0 940.8 0.1 91
2018-11-29 07:00:00 -1.1 3 Este 8 Sur 0 941 -0.2 90
2018-11-29 06:00:00 -0.2 0 Calma 14 Nordeste 0 940.8 -0.3 89
2018-11-29 05:00:00 1.2 6 Sudeste 12 Sudeste 0 940.7 -0.6 89
2018-11-29 04:00:00 -0.7 3 Oeste 14 Oeste 0 941.2 -0.7 87
2018-11-29 03:00:00 1.1 3 Sudeste 16 Sur 0 941.1 -1.2 84
2018-11-29 02:00:00 1.9 9 Sur 19 Sudoeste 0 941.3 -1 84
2018-11-29 01:00:00 2.6 6 Sudeste 17 Este 0 941.9 -0.4 83
2018-11-29 00:00:00 3 4 Oeste 19 Sudoeste 0 942.3 -0.1 83
2018-11-28 23:00:00 4.4 6 Sudoeste 22 Sudoeste 0 942.3 -0.3 74
2018-11-28 22:00:00 5.9 8 Sur 22 Sur 0 942.3 -0.2 76
2018-11-28 21:00:00 7 4 Sur 22 Sudoeste 0 942.4 0 73
2018-11-28 13:00:00 10.4 12 Sudeste 22 Sudeste 0 943.8 -0.3 64
2018-11-28 12:00:00 7.6 9 Este 19 Este 0 944.3 0.8 77
2018-11-28 11:00:00 5.8 6 Sudeste 13 Sur 0 944.5 1.3 82
2018-11-28 10:00:00 2.1 0 Calma 11 Este 0 944.1 1.3 89
2018-11-28 09:00:00 0.5 3 Este 15 Oeste 0 943.5 0.6 90
2018-11-28 08:00:00 -0.9 3 Oeste 10 Este 0 943.2 0.3 89
2018-11-28 07:00:00 0 3 Sur 13 Nordeste 0 942.8 -0.2 90
2018-11-28 06:00:00 0.2 0 Calma 15 Oeste 0 942.9 0.2 89
2018-11-28 05:00:00 0.5 4 Oeste 15 Oeste 0 942.9 -0.1 88
2018-11-28 04:00:00 0.8 5 Oeste 18 Sudoeste 0 943 -0.2 87
2018-11-28 03:00:00 1.6 4 Nordeste 17 Este 0 942.7 -0.3 88
2018-11-28 02:00:00 1.5 4 Oeste 17 Oeste 0 943 -0.4 86
2018-11-28 01:00:00 2.2 4 Oeste 20 Sudoeste 0 943.2 0 85
2018-11-28 00:00:00 4.1 8 Sudoeste 21 Sudoeste 0 943 0.1 84
2018-11-27 23:00:00 3.4 4 Sudoeste 10 Sudoeste 0 943.4 0.4 84
2018-11-27 22:00:00 4.4 8 Sudoeste 19 Sudoeste 0 943.2 0.6 84
2018-11-27 21:00:00 5 5 Oeste 8 Oeste 0 942.9 0.7 80
2018-11-27 20:00:00 7.3 0 Calma 21 Este 0 943 1 71
2018-11-27 19:00:00 9.4 5 Norte 13 Noroeste 0 942.6 0.6 64
2018-11-27 18:00:00 11 3 Norte 15 Noroeste 0 942.2 0.1 61
2018-11-27 17:00:00 13.1 9 Noroeste 17 Noroeste 0 942 -0.4 49
2018-11-27 16:00:00 13.9 9 Noroeste 31 Oeste 0 942 -0.9 41
2018-11-27 15:00:00 13.7 12 Oeste 32 Oeste 0 942.1 -1.3 47
2018-11-27 14:00:00 13.4 8 Oeste 29 Oeste 0 942.4 -1 49
2018-11-27 13:00:00 12.3 8 Sudoeste 25 Sur 0 942.9 0 57
2018-11-27 12:00:00 11.1 9 Sur 23 Sur 0 943.4 0.9 57
2018-11-27 11:00:00 7.8 5 Sudoeste 19 Sur 0 943.4 1.1 72
2018-11-27 10:00:00 5.8 7 Sudeste 18 Sudoeste 0 942.9 0.8 78
2018-11-27 09:00:00 3.2 8 Sudoeste 14 Sudoeste 0 942.5 0.3 84
2018-11-27 08:00:00 3.2 10 Sudoeste 15 Sudoeste 0 942.3 0 82
2018-11-27 07:00:00 3.3 9 Sudoeste 14 Sudoeste 0 942.1 -0.2 82
2018-11-27 06:00:00 3.3 11 Oeste 19 Oeste 0 942.2 0.1 81
2018-11-27 05:00:00 4.1 15 Oeste 21 Oeste 0 942.3 0.2 80
2018-11-27 04:00:00 4.3 12 Oeste 21 Oeste 0 942.3 0.3 80
2018-11-27 03:00:00 3.7 11 Oeste 15 Oeste 0 942.1 0.4 84
2018-11-27 02:00:00 2.9 8 Oeste 15 Oeste 0 942.1 0.7 85
2018-11-27 01:00:00 2.5 9 Oeste 13 Oeste 0 942 1.4 84
2018-11-27 00:00:00 3.6 10 Oeste 15 Oeste 0 941.7 1.6 84
2018-11-26 23:00:00 4.3 10 Oeste 19 Oeste 0 941.4 1.8 80
2018-11-26 22:00:00 5.7 11 Oeste 21 Oeste 0 940.6 2 75
2018-11-26 21:00:00 5.7 14 Oeste 22 Oeste 0 940.1 2.1 76
2018-11-26 20:00:00 6.1 11 Oeste 23 Oeste 0 939.6 2.3 76
2018-11-26 19:00:00 7 13 Noroeste 23 Noroeste 0 938.6 2.1 73
2018-11-26 18:00:00 8.7 17 Noroeste 40 Noroeste 0 938 1.9 65
2018-11-26 17:00:00 10.5 23 Noroeste 47 Noroeste 0 937.3 1.7 60
2018-11-26 16:00:00 10.9 24 Noroeste 49 Noroeste 0 936.5 1.1 61
2018-11-26 15:00:00 10.4 21 Noroeste 44 Noroeste 0 936.1 1.1 61
2018-11-26 14:00:00 10.4 32 Noroeste 50 Oeste 0 935.6 1.4 58
2018-11-26 13:00:00 10.5 31 Oeste 49 Oeste 0 935.4 1.6 60
2018-11-26 12:00:00 10.2 31 Oeste 49 Oeste 0 935 1.8 62
2018-11-26 11:00:00 9.4 28 Oeste 45 Oeste 0 934.2 1.9 65
2018-11-26 10:00:00 7 22 Sudoeste 41 Sudoeste 0 933.8 1.7 71
2018-11-26 09:00:00 5.5 19 Sudoeste 33 Sudoeste 0 933.2 1.9 74
2018-11-26 08:00:00 5.5 18 Oeste 35 Sudoeste 0 932.3 1.8 74
2018-11-26 07:00:00 5.4 18 Oeste 33 Oeste 0 932.1 2.8 76
2018-11-26 06:00:00 6.2 23 Oeste 40 Oeste 0 931.3 3.5 70
2018-11-26 05:00:00 6.8 27 Oeste 57 Oeste 0 930.5 3.6 72
2018-11-26 04:00:00 9 39 Oeste 57 Oeste 0 929.3 2.2 76
2018-11-26 03:00:00 10.2 29 Oeste 58 Oeste 0 927.8 0.2 77
2018-11-26 02:00:00 10.9 23 Sudoeste 39 Sudoeste 0 926.9 -1.7 87
2018-11-26 01:00:00 10.7 19 Sudoeste 39 Sudoeste 0 927.1 -2 88
2018-11-26 00:00:00 10.3 18 Sudoeste 32 Sudoeste 1.6 927.6 -1.9 88
2018-11-25 23:00:00 9.9 15 Sudoeste 41 Sudoeste 1.4 928.6 -0.9 87
2018-11-25 22:00:00 10.6 26 Sudoeste 44 Sudoeste 0.8 929.1 -0.7 82
2018-11-25 21:00:00 11.5 19 Sudoeste 42 Oeste 0 929.5 -0.4 83
2018-11-25 20:00:00 11.8 18 Sudoeste 36 Sudoeste 0 929.5 -0.4 81
2018-11-25 19:00:00 11.6 14 Sudoeste 33 Sudoeste 0 929.8 -0.3 81
2018-11-25 18:00:00 12.2 14 Oeste 40 Sudoeste 0 929.9 -0.6 77
2018-11-25 17:00:00 13 22 Oeste 46 Sudoeste 0 929.9 -1.1 71
2018-11-25 16:00:00 13.3 22 Sudoeste 52 Oeste 0 930.1 -1.4 74
2018-11-25 15:00:00 13.1 22 Sudoeste 46 Oeste 0 930.5 -1.6 83
2018-11-25 14:00:00 13 23 Sudoeste 44 Sudoeste 0 931 -1.2 82
2018-11-25 13:00:00 14.2 27 Sudoeste 51 Sudoeste 0 931.5 -0.3 73
2018-11-25 12:00:00 13.3 19 Sudoeste 36 Sudoeste 0 932.1 0.6 80
2018-11-25 11:00:00 12 19 Sudoeste 37 Sudoeste 0 932.2 0.9 84
2018-11-25 10:00:00 11.1 21 Sudoeste 35 Sudoeste 0 931.8 0.6 85
2018-11-25 09:00:00 10 21 Sudoeste 32 Sudoeste 0 931.5 0.6 86
2018-11-25 08:00:00 9.8 15 Sudoeste 31 Sudoeste 0 931.3 0.2 88
2018-11-25 07:00:00 9.8 13 Sudoeste 31 Sur 0 931.2 -0.4 89
2018-11-25 06:00:00 9.1 19 Sur 35 Sur 0.4 930.9 -1.2 90
2018-11-25 05:00:00 8.6 18 Sur 38 Sur 0.2 931.1 -2 87
2018-11-25 04:00:00 9.1 17 Sur 34 Sur 0 931.6 -2 84
2018-11-25 03:00:00 8.7 11 Sur 40 Sur 0 932.1 -1.9 82
2018-11-25 02:00:00 8.8 20 Sudoeste 45 Sudoeste 0 933.1 -1.7 80
2018-11-25 01:00:00 8.7 23 Sur 39 Sudoeste 0 933.6 -1.5 79
2018-11-25 00:00:00 7.8 19 Sur 30 Sur 0 934 -1.4 79
2018-11-24 23:00:00 6.9 12 Sur 25 Sur 0 934.8 -0.7 76
2018-11-24 22:00:00 6.7 8 Sur 23 Sur 0 935.1 -0.1 72
2018-11-24 21:00:00 6.6 10 Sur 23 Sur 0 935.4 0.5 72
2018-11-24 20:00:00 6.3 9 Sudoeste 21 Sudoeste 0 935.5 0.5 74
2018-11-24 19:00:00 7.6 9 Sudoeste 22 Sudoeste 0 935.2 0 69
2018-11-24 18:00:00 9.5 8 Sudoeste 28 Sudoeste 0 934.9 -0.6 62
2018-11-24 17:00:00 10.9 10 Sudoeste 29 Sudoeste 0 935 -1.4 53
2018-11-24 16:00:00 11.2 10 Sudoeste 33 Oeste 0 935.2 -1.7 52
2018-11-24 15:00:00 11.2 11 Sudoeste 27 Sur 0 935.5 -2 55
2018-11-24 14:00:00 10.1 12 Oeste 31 Oeste 0 936.4 -1.3 62
2018-11-24 13:00:00 10.1 10 Oeste 28 Oeste 0 936.9 -0.3 56
2018-11-24 12:00:00 10.1 13 Sur 21 Sur 0 937.5 0.5 68
2018-11-24 11:00:00 7.8 10 Sudeste 19 Sudeste 0 937.7 1.4 78
2018-11-24 10:00:00 4.5 5 Sudeste 17 Sur 0 937.2 1.4 89
2018-11-24 09:00:00 2.1 5 Sudeste 13 Sudeste 0 937 1.1 91
2018-11-24 08:00:00 0.6 3 Sudeste 12 Este 0 936.3 0.4 90
2018-11-24 07:00:00 1.7 6 Sur 11 Sudeste 0 935.8 -0.6 90
2018-11-24 06:00:00 1.5 5 Oeste 11 Oeste 0 935.9 -0.7 89
2018-11-24 05:00:00 1.8 4 Sudoeste 17 Oeste 0 935.9 -0.8 88
2018-11-24 04:00:00 2.9 6 Sudoeste 13 Sudoeste 0 936.4 -0.3 87
2018-11-24 03:00:00 2.4 5 Sudoeste 12 Sudoeste 0 936.6 -0.5 88
2018-11-24 02:00:00 2.8 9 Sudoeste 12 Sudoeste 0 936.7 -0.4 86
2018-11-24 01:00:00 3.5 9 Sudoeste 13 Sudoeste 0 936.7 -0.1 85
2018-11-24 00:00:00 3.9 6 Sudoeste 18 Sudoeste 0 937.1 1 82
2018-11-23 23:00:00 4.4 4 Sudoeste 21 Sudoeste 0 937.1 1.5 81
2018-11-23 22:00:00 5 8 Sudoeste 21 Sudoeste 0 936.8 1.7 81
2018-11-23 21:00:00 6.4 10 Sudoeste 22 Sudoeste 0 936.1 1.4 77
2018-11-23 20:00:00 7.4 6 Sudoeste 10 Oeste 0 935.6 1.2 76
2018-11-23 19:00:00 8.8 5 Oeste 10 Norte 0 935.1 1.1 76
2018-11-23 18:00:00 10 8 Noroeste 31 Oeste 0 934.7 0.7 70
2018-11-23 17:00:00 11.2 14 Oeste 35 Oeste 0 934.4 0.2 57
2018-11-23 16:00:00 11.6 16 Oeste 32 Oeste 0 934 -0.6 52
2018-11-23 15:00:00 12.4 15 Oeste 31 Oeste 0 934 -1.2 51
2018-11-23 14:00:00 10.9 6 Oeste 31 Oeste 0 934.2 -0.9 59
2018-11-23 13:00:00 10.3 9 Oeste 31 Oeste 0 934.6 -0.1 66
2018-11-23 12:00:00 9.5 14 Oeste 30 Oeste 0 935.2 1.1 73
2018-11-23 11:00:00 9.1 12 Oeste 28 Oeste 0 935.1 1.4 80
2018-11-23 10:00:00 7.4 8 Oeste 12 Oeste 0 934.7 1.7 89
2018-11-23 09:00:00 6.9 5 Oeste 24 Noroeste 0.2 934.1 1.7 89
2018-11-23 08:00:00 7 17 Noroeste 32 Noroeste 0.4 933.7 1.2 89
2018-11-23 07:00:00 8.1 9 Oeste 27 Oeste 0 933 0.5 90
2018-11-23 06:00:00 8 3 Oeste 19 Sur 0 932.4 -0.1 91
2018-11-23 05:00:00 7.9 4 Sudeste 17 Sudoeste 0 932.5 -0.1 91
2018-11-23 04:00:00 7.9 5 Sudeste 19 Este 0.2 932.5 -0.6 90
2018-11-23 03:00:00 8 6 Sudeste 19 Este 0 932.5 -0.7 89
2018-11-23 02:00:00 8.2 4 Sudeste 20 Este 0.4 932.6 -0.9 88
2018-11-23 01:00:00 8.6 5 Sudeste 23 Sur 0.2 933.1 -0.7 85
2018-11-23 00:00:00 8.7 6 Sudeste 13 Sudeste 0 933.2 -0.9 84
2018-11-22 23:00:00 8.9 6 Sur 25 Sur 0 933.5 -0.8 85
2018-11-22 22:00:00 8.9 5 Sur 21 Este 0 933.8 -0.6 86
2018-11-22 21:00:00 9.1 7 Sudeste 29 Este 0 934.1 -0.3 85
2018-11-22 20:00:00 9.2 8 Sudeste 25 Este 0 934.3 0.1 85
2018-11-22 19:00:00 9.9 5 Sudeste 15 Sudeste 0 934.4 0 83
2018-11-22 18:00:00 10.4 7 Sudeste 15 Sudeste 0 934.4 -0.1 80
2018-11-22 17:00:00 10.8 9 Sur 29 Sur 0 934.2 -0.7 77
2018-11-22 16:00:00 11 11 Sudeste 28 Sur 0 934.4 -1.2 75
2018-11-22 15:00:00 10.9 11 Sudeste 27 Este 0 934.5 -1.5 77
2018-11-22 14:00:00 10.8 8 Sudeste 23 Este 0 934.9 -1.2 77
2018-11-22 13:00:00 10.3 6 Sudeste 20 Este 0 935.6 -0.7 78
2018-11-22 12:00:00 9.4 5 Sur 23 Este 0 936 0.1 83
2018-11-22 11:00:00 8.3 8 Sudeste 24 Sudeste 0 936.1 0.4 89
2018-11-22 10:00:00 7.3 9 Sudeste 24 Sudeste 0 936.3 1.1 90
2018-11-22 09:00:00 6.8 10 Sudeste 22 Sudeste 0 935.9 0.6 90
2018-11-22 08:00:00 6.8 9 Sur 23 Sur 0 935.7 0.5 90
2018-11-22 07:00:00 6.6 6 Este 22 Sur 0 935.2 -0.1 90
2018-11-22 06:00:00 6.9 6 Sudeste 21 Sur 0 935.3 0.2 89
2018-11-22 05:00:00 6.6 5 Este 18 Este 0 935.2 -0.1 88
2018-11-22 04:00:00 6.4 2 Nordeste 17 Nordeste 0 935.3 -0.2 88
2018-11-22 03:00:00 6.4 2 Sur 21 Sudoeste 0 935.1 -0.2 87
2018-11-22 02:00:00 6 3 Sudoeste 19 Sudoeste 0 935.3 -0.1 87
2018-11-22 01:00:00 5.4 5 Nordeste 18 Nordeste 0 935.5 0.5 85
2018-11-22 00:00:00 6.2 2 Sudeste 18 Este 0 935.3 0.8 83
2018-11-21 23:00:00 6.2 5 Norte 17 Este 0 935.4 1.5 83
2018-11-21 22:00:00 6.3 2 Sur 17 Sudoeste 0 935 1.6 81
2018-11-21 21:00:00 7.3 4 Sudoeste 19 Sudoeste 0 934.5 1.9 79
2018-11-21 20:00:00 7.9 5 Sudoeste 23 Sur 0 933.9 1.5 77
2018-11-21 19:00:00 9.3 6 Sudoeste 24 Sudoeste 0 933.4 1.3 73
2018-11-21 18:00:00 10.3 10 Sudoeste 31 Sudoeste 0 932.6 0.8 70
2018-11-21 17:00:00 11.1 15 Sudoeste 35 Sudoeste 0 932.4 0.4 66
2018-11-21 16:00:00 11.9 14 Sudoeste 45 Sudoeste 0 932.1 -0.2 63
2018-11-21 15:00:00 13.4 16 Sudoeste 40 Sudoeste 0 931.8 -0.8 55
2018-11-21 14:00:00 13.3 21 Sudoeste 40 Sudoeste 0 932 0 57
2018-11-21 13:00:00 12.2 20 Sudoeste 37 Sudoeste 0 932.3 1 61
2018-11-21 12:00:00 10.2 16 Sudoeste 33 Sudoeste 0 932.6 2.1 73
2018-11-21 11:00:00 9.6 17 Sudoeste 33 Sur 0 932 2 76
2018-11-21 10:00:00 8.8 15 Sur 32 Sur 0 931.3 1.6 77
2018-11-21 09:00:00 8.3 12 Sur 27 Sur 0 930.5 1.1 80
2018-11-21 08:00:00 8.1 9 Sur 26 Sur 0 930 1 84
2018-11-21 07:00:00 7.9 13 Sudoeste 26 Sur 0 929.7 0.7 84
2018-11-21 06:00:00 8.1 15 Sudoeste 35 Sudoeste 0 929.4 1 81
2018-11-21 05:00:00 7.7 8 Sudoeste 23 Sur 0 929 0.9 83
2018-11-21 04:00:00 7.6 11 Sudoeste 32 Sudoeste 0 929 1 82
2018-11-21 03:00:00 8.3 18 Sudoeste 34 Sudoeste 0 928.4 1 81
2018-11-21 02:00:00 8.2 14 Sudoeste 28 Sudoeste 0 928.1 1.1 86
2018-11-21 01:00:00 8.7 15 Sudoeste 34 Sudoeste 0 928 1.5 81
2018-11-21 00:00:00 8.2 19 Sudoeste 41 Sudoeste 0 927.4 1.6 78
2018-11-20 23:00:00 8.3 18 Sudoeste 30 Sudoeste 0 927 1.6 79
2018-11-20 22:00:00 9 16 Sudoeste 35 Sudoeste 0 926.5 1.7 79
2018-11-20 21:00:00 8.7 21 Sudoeste 35 Sudoeste 0 925.8 1.9 78
2018-11-20 20:00:00 9 16 Sudoeste 40 Sudoeste 0 925.4 2.2 76
2018-11-20 19:00:00 9.2 13 Sudoeste 45 Sudoeste 0 924.8 2.6 68
2018-11-20 18:00:00 10.1 17 Sudoeste 58 Sudoeste 0 923.9 2.1 64
2018-11-20 17:00:00 11.2 30 Oeste 64 Sudoeste 0 923.2 1.2 62
2018-11-20 16:00:00 11.8 30 Oeste 57 Oeste 0 922.2 -0.1 57
2018-11-20 15:00:00 12.9 34 Oeste 59 Sudoeste 0 921.8 -0.8 59
2018-11-20 14:00:00 12.4 27 Oeste 42 Oeste 0 922 -- 69
2018-11-20 13:00:00 12.3 16 Sudoeste 51 Sudoeste 0 922.3 -0.1 72
2018-11-20 12:00:00 12.4 26 Sudoeste -- -- -- 922.6 0.2 71
2018-11-20 11:00:00 -- -- -- -- -- -- -- -- --
2018-11-20 10:00:00 10.4 17 Sudoeste 31 Sudoeste 0 922.4 0.2 82
2018-11-20 09:00:00 8.9 12 Sudoeste 28 Sudoeste 0 922.4 0.3 86
2018-11-20 08:00:00 8.6 12 Sudoeste -- -- 0 922.2 0.1 87
2018-11-20 07:00:00 8.9 15 Sudoeste 28 Sudoeste 0.2 922.2 -0.3 87
2018-11-20 06:00:00 9.1 14 Sudoeste 28 Sudoeste 0 922.1 -0.6 85
2018-11-20 05:00:00 9.1 13 Oeste 28 Oeste 0 922.1 -0.7 85
2018-11-20 04:00:00 9.1 12 Sudoeste 27 Sudoeste 0 922.5 -0.5 85
2018-11-20 03:00:00 9.5 11 Sudoeste 26 Sudoeste 0 922.7 -0.5 85
2018-11-20 02:00:00 9.3 10 Sudoeste 22 Sudoeste 0 922.8 -0.6 87
2018-11-20 01:00:00 8.9 7 Sudoeste 12 Sudoeste 0 923 -0.2 87
2018-11-20 00:00:00 8.9 5 Oeste 14 Oeste 0 923.2 0.2 87
2018-11-19 23:00:00 9.4 7 Sudoeste 28 Oeste 0 923.4 0.4 86
2018-11-19 22:00:00 9.4 11 Oeste 28 Oeste 0 923.2 0.4 86
2018-11-19 21:00:00 9.5 12 Sudoeste 24 Sudoeste 0 923 0.5 86
2018-11-19 20:00:00 9.9 11 Sudoeste 26 Sudoeste 0 923 0.8 85
2018-11-19 19:00:00 10.4 5 Sudoeste 8 Sudoeste 0 922.8 0.4 83
2018-11-19 18:00:00 10.9 -- -- -- -- 0 922.5 -0.1 78
2018-11-19 17:00:00 11.1 -- -- -- -- 0 922.2 -0.6 76
2018-11-19 16:00:00 11.2 10 Oeste 28 Oeste 0 922.4 -0.8 72
2018-11-19 15:00:00 10.7 6 Oeste 21 Oeste 0 922.6 -1.1 72
2018-11-19 14:00:00 10.3 5 Oeste -- -- 0 922.8 -0.8 76
2018-11-19 13:00:00 9.7 3 Noroeste 19 Este 0 923.2 -0.1 81
2018-11-19 12:00:00 9.2 6 Nordeste 19 Nordeste 0 923.7 0.8 83
2018-11-19 11:00:00 9.1 4 Norte 22 Nordeste 0 923.6 1 84
2018-11-19 10:00:00 8.8 4 Nordeste 20 Nordeste 0 923.3 0.8 86
2018-11-19 09:00:00 8.5 3 Norte 26 Nordeste 0 922.9 0.5 87
2018-11-19 08:00:00 8.4 9 Nordeste 23 Nordeste 0 922.6 0 90
2018-11-19 07:00:00 8.2 8 Nordeste 21 Este 0 922.5 -0.3 91
2018-11-19 06:00:00 8.2 9 Este 24 Este 0.6 922.4 -0.6 92
2018-11-19 05:00:00 8.3 12 Este 27 Este 1.4 922.6 -0.5 91
2018-11-19 04:00:00 8.5 18 Este 28 Este 1.2 922.8 -0.7 91
2018-11-19 03:00:00 8.6 19 Este 30 Sudeste 0.8 923 -0.7 90
2018-11-19 02:00:00 8.6 18 Este 33 Este 0.2 923.1 -0.9 89
2018-11-19 01:00:00 8.9 23 Este 39 Este 0 923.5 -0.5 88
2018-11-19 00:00:00 9 23 Este 37 Sudeste 0 923.7 -0.1 89
2018-11-18 23:00:00 9.3 22 Sudeste 40 Este 0.6 924 0.6 89
2018-11-18 22:00:00 9.5 23 Sudeste 41 Sudeste 0.4 924 0.7 89
2018-11-18 21:00:00 9.7 24 Sudeste 44 Sudeste 0.6 923.8 0.6 88
2018-11-18 20:00:00 10.7 24 Sudeste 48 Este 0 923.4 0.2 82
2018-11-18 19:00:00 11.1 24 Este 39 Sudeste 0 923.3 0 80
2018-11-18 18:00:00 11.4 17 Sudeste -- -- 0 923.2 -0.4 78
2018-11-18 17:00:00 12 24 Sudeste -- -- 0 923.2 -1.1 74
2018-11-18 16:00:00 12.5 -- -- -- -- 0 923.3 -1.6 72
2018-11-18 15:00:00 12.6 -- -- -- -- 0 923.6 -2.2 74
2018-11-18 14:00:00 11.8 -- -- -- -- 0.2 924.3 -2 78
2018-11-18 13:00:00 11.2 26 Este 42 Este 0 924.9 -1.5 82
2018-11-18 12:00:00 10.9 23 Este 42 Sudeste 0 925.8 -0.5 82
2018-11-18 11:00:00 10.5 22 Este 40 Sudeste 0 926.3 -0.2 85
2018-11-18 10:00:00 9.8 22 Este 36 Este 0 926.4 -0.3 87
2018-11-18 09:00:00 9.1 21 Este 32 Este 0 926.3 -0.8 89
2018-11-18 08:00:00 8.3 14 Este 23 Este 0 926.5 -1 90
2018-11-18 07:00:00 8.4 14 Este 30 Este 0 926.7 -1.6 90
2018-11-18 06:00:00 8.8 14 Sudeste 28 Este 0 927.1 -2.2 90
2018-11-18 05:00:00 8.9 14 Sudeste 32 Sudeste 0 927.5 -2 90
2018-11-18 04:00:00 9.1 17 Este 33 Este 0 928.3 -1.9 90
2018-11-18 03:00:00 8.7 3 Sur 22 Este 0 929.3 -1.3 90
2018-11-18 02:00:00 8.7 10 Sudeste 24 Este 0 929.5 -1.6 89
2018-11-18 01:00:00 9.2 7 Sudeste 30 Este 0 930.2 -1.3 89
2018-11-18 00:00:00 9 9 Sudeste 27 Este 0 930.6 -1.1 89
2018-11-17 23:00:00 9.1 14 Este 27 Este 0 931.1 -0.7 88
2018-11-17 22:00:00 9.7 7 Este 21 Este 0 931.5 -0.5 84
2018-11-17 21:00:00 9.9 3 Sudeste 26 Este 0 931.7 -0.8 82
2018-11-17 20:00:00 10.3 13 Este 30 Este 0 931.8 -0.6 80
2018-11-17 19:00:00 11.7 16 Este 34 Este 0 932 -0.7 76
2018-11-17 18:00:00 13.6 18 Este 36 Este 0 932.5 -0.7 71
2018-11-17 17:00:00 15.2 15 Este 33 Este 0 932.4 -1.6 63
2018-11-17 16:00:00 16.2 13 Este 33 Este 0 932.7 -2.2 58
2018-11-17 15:00:00 16.6 8 Sudeste 21 Sudeste 0 933.2 -2.5 60
2018-11-17 14:00:00 15.9 12 Sudeste -- -- 0 934 -2.2 65
2018-11-17 13:00:00 15.4 13 Sudeste -- -- 0 934.9 -1.3 69
2018-11-17 12:00:00 13.9 17 Sudeste 39 Este 0 935.7 -0.4 78
2018-11-17 11:00:00 11.6 14 Sudeste 37 Sudeste 0 936.2 0.3 91
2018-11-17 10:00:00 9.5 9 Este 24 Este 0 936.2 0.3 93
2018-11-17 09:00:00 8 9 Sudeste 24 Este 0 936.1 0.1 93
2018-11-17 08:00:00 8.1 13 Este 31 Este 0 935.9 -0.1 92
2018-11-17 07:00:00 9.1 13 Sudeste 27 Este 0 935.9 -0.4 92
2018-11-17 06:00:00 9.2 12 Sudeste 29 Este 0 936 -0.4 91
2018-11-17 05:00:00 9.6 16 Este 28 Este 0 936 -0.5 91
2018-11-17 04:00:00 9.7 7 Sudeste 26 Este 0 936.3 -0.4 89
2018-11-17 03:00:00 10.4 9 Sudeste 25 Este 0 936.4 -0.6 89
2018-11-17 02:00:00 10.8 8 Sudeste 20 Sudeste 0 936.5 -0.5 88
2018-11-17 01:00:00 11.1 8 Sudeste 21 Sur 0 936.7 -0.5 88
2018-11-17 00:00:00 11.3 8 Sudeste 33 Este 0 937 0 86
2018-11-16 23:00:00 11.1 12 Sudeste 30 Este 0 937 0 87
2018-11-16 22:00:00 11.2 5 Sur 33 Este 0 937.2 0.5 84
2018-11-16 21:00:00 11.9 12 Sudeste 37 Este 0 937 0.4 82
2018-11-16 20:00:00 11.8 7 Sudeste 33 Este 0 937 0.4 82
2018-11-16 19:00:00 12.7 12 Sudeste 38 Este 0 936.7 0.4 81
2018-11-16 18:00:00 13.9 22 Este 45 Este 0.2 936.6 -0.2 78
2018-11-16 17:00:00 14.1 5 Sudoeste 45 Este 1.8 936.6 -0.8 78
2018-11-16 16:00:00 16.2 24 Este 46 Este 0 936.3 -1.4 70
2018-11-16 15:00:00 16.4 21 Este 45 Este 0 936.8 -1.7 66
2018-11-16 14:00:00 15.8 22 Este 45 Sudeste 0 937.4 -1.2 71
2018-11-16 13:00:00 15.8 21 Sudeste 46 Sudeste 0 937.7 -0.8 71
2018-11-16 12:00:00 14.8 27 Este 46 Sudeste 0 938.5 0.4 76
2018-11-16 11:00:00 13.9 27 Este 43 Este 0 938.6 0.8 81
2018-11-16 10:00:00 12.6 20 Sudeste 38 Este 0 938.5 1 88
2018-11-16 09:00:00 11.1 12 Este 31 Este 0 938.1 0.4 91
2018-11-16 08:00:00 10.7 7 Este 31 Este 0 937.8 0.2 92
2018-11-16 07:00:00 10.6 9 Sudeste 25 Este 0 937.5 -0.3 91
2018-11-16 06:00:00 10.3 5 Sudeste 30 Este 0 937.7 -0.4 91
2018-11-16 05:00:00 10.9 13 Sudeste 32 Este 0 937.6 -0.3 91
2018-11-16 04:00:00 11.3 11 Este 33 Este 0 937.8 -0.5 90
2018-11-16 03:00:00 11.6 13 Este 35 Este 0 938.1 -0.2 90
2018-11-16 02:00:00 11.1 13 Este 30 Este 0 937.9 -0.6 91
2018-11-16 01:00:00 10.7 11 Este 29 Este 0 938.3 0.4 90
2018-11-16 00:00:00 11.3 16 Este 32 Este 0 938.3 0.8 88
2018-11-15 23:00:00 11.1 6 Este 14 Este 0 938.5 1.3 87
2018-11-15 22:00:00 11 8 Este 32 Este 0 937.9 1 85
2018-11-15 21:00:00 11.6 10 Este 18 Este 0 937.5 1 84
2018-11-15 20:00:00 12.5 11 Este 31 Este 0 937.2 0.9 80
2018-11-15 19:00:00 12.8 14 Este 35 Este 0 936.9 0.7 75
2018-11-15 18:00:00 14.1 14 Este 36 Este 0 936.5 0.2 74
2018-11-15 17:00:00 15.2 15 Este 43 Este 0 936.3 -0.5 67
2018-11-15 16:00:00 15.5 17 Este 39 Este 0 936.2 -1.2 64
2018-11-15 15:00:00 15.7 22 Este -- -- -- 936.3 -1.5 68
2018-11-15 14:00:00 15.6 16 Sudeste 44 Este 0 936.8 -0.8 69
2018-11-15 13:00:00 14.7 26 Este 41 Este 0 937.4 -0.1 73
2018-11-15 12:00:00 13.8 15 Sudeste 35 Este 0 937.8 0.6 77
2018-11-15 11:00:00 12.4 24 Este 36 Este 0 937.6 0.5 82
2018-11-15 10:00:00 11.4 13 Este 32 Este 0 937.5 0.9 86
2018-11-15 09:00:00 11.1 7 Este 31 Este 0 937.2 0.6 87
2018-11-15 08:00:00 10.9 15 Este 33 Este 0 937.1 0.6 88
2018-11-15 07:00:00 10.9 10 Este 16 Este 0 936.6 -0.1 91
2018-11-15 06:00:00 10.4 7 Sudeste 33 Este 0 936.6 -0.3 91
2018-11-15 05:00:00 10.1 21 Este 34 Este 0 936.5 -0.8 91
2018-11-15 04:00:00 9.7 22 Este 33 Este 0 936.7 -1.1 91
2018-11-15 03:00:00 10.3 15 Este 33 Este 0 936.9 -1 89
2018-11-15 02:00:00 10.6 13 Sudeste 34 Sudeste 0 937.3 -1.1 87
2018-11-15 01:00:00 10.9 17 Sudeste 36 Este 0 937.8 -0.8 87
2018-11-15 00:00:00 11.1 19 Este 36 Este 0 937.9 -0.7 87
2018-11-14 23:00:00 11.5 19 Este 38 Este 0 938.4 -0.2 86
2018-11-14 22:00:00 12.1 23 Este 41 Este 0 938.6 -0.1 85
2018-11-14 21:00:00 12.6 23 Este 40 Este 0 938.6 0.1 82
2018-11-14 20:00:00 13.4 23 Este 37 Este 0 938.6 -0.1 78
2018-11-14 19:00:00 14.4 15 Este 41 Este 0 938.7 -0.3 74
2018-11-14 18:00:00 15.6 15 Este 41 Este 0 938.5 -0.7 69
2018-11-14 17:00:00 16.3 17 Sudeste 43 Este 0 938.7 -1.1 63
2018-11-14 16:00:00 16.1 21 Sudeste 47 Este 0 939 -1.7 64
2018-11-14 15:00:00 16.5 23 Este 45 Este 0 939.2 -2.4 66
2018-11-14 14:00:00 15.7 19 Este 40 Este 0 939.8 -2.1 69
2018-11-14 13:00:00 14.9 13 Este 44 Este 0 940.7 -1.4 74
2018-11-14 12:00:00 15 20 Sudeste 46 Sudeste 0 941.6 -0.4 74
2018-11-14 11:00:00 13.8 20 Sudeste 45 Sudeste 0 941.9 0.2 80
2018-11-14 10:00:00 12.3 24 Este 44 Este 0 942.1 0.2 86
2018-11-14 09:00:00 11.7 15 Sudeste 35 Este 0 942 -0.1 90
2018-11-14 08:00:00 11.3 19 Este 38 Este 0 941.7 -0.5 91
2018-11-14 07:00:00 10.8 19 Este 31 Este 0 941.9 -0.6 91
2018-11-14 06:00:00 10.7 14 Este 32 Este 0 942.1 -0.7 91
2018-11-14 05:00:00 10.7 18 Este 34 Este 0 942.2 -0.9 90
2018-11-14 04:00:00 10.9 19 Este 33 Este 0 942.5 -1.1 90
2018-11-14 03:00:00 10.6 21 Este 33 Este 0 942.8 -0.7 89
2018-11-14 02:00:00 10.6 19 Este 31 Este 0 943.1 -0.3 89
2018-11-14 01:00:00 10.8 13 Este 36 Este 0 943.6 0.2 88
2018-11-14 00:00:00 11.2 17 Este 33 Este 0 943.5 0.3 87
2018-11-13 23:00:00 11.3 19 Este 32 Este 0 943.4 0.1 86
2018-11-13 22:00:00 11.5 8 Sudeste 35 Este 0 943.4 0.6 84
2018-11-13 21:00:00 12.1 18 Este 35 Este 0 943.2 0.9 83
2018-11-13 20:00:00 12.9 16 Este 32 Este 0 943.3 1.2 80
2018-11-13 19:00:00 14.3 16 Este 25 Este 0 942.8 1 76
2018-11-13 18:00:00 15 15 Nordeste 33 Este 0 942.3 0.5 72
2018-11-13 17:00:00 15.7 21 Este 35 Este 0 942.1 0.1 69
2018-11-13 16:00:00 16.5 17 Este -- -- -- 941.8 -0.7 66
2018-11-13 15:00:00 16.2 14 Este 37 Este 0 941.8 -1.2 68
2018-11-13 14:00:00 15.5 19 Este 38 Este 0 942 -1.1 69
2018-11-13 13:00:00 14.1 13 Este 35 Este 0 942.5 -0.4 77
2018-11-13 12:00:00 12.1 13 Este -- -- -- 943 0.7 85
2018-11-13 11:00:00 10.5 10 Este 27 Este 0 943.1 1.5 90
2018-11-13 10:00:00 9.8 10 Este 27 Este 0 942.9 1.8 92
2018-11-13 09:00:00 10 9 Este 29 Este 0 942.3 1.4 91
2018-11-13 08:00:00 10.4 9 Sudeste 28 Este 0 941.6 0.8 91
2018-11-13 07:00:00 10.6 13 Sudeste 31 Este 0 941.1 0.3 92
2018-11-13 06:00:00 10.2 6 Este 22 Este 0 940.9 0.3 92
2018-11-13 05:00:00 9.5 5 Sudeste 19 Este 0 940.8 0.6 92
2018-11-13 04:00:00 8.8 0 Calma 5 Noroeste 0 940.8 0.8 92
2018-11-13 03:00:00 8 0 Calma 18 Este 0 940.6 1.3 91
2018-11-13 02:00:00 6.6 2 Norte 5 Oeste 0 940.2 0.8 90
2018-11-13 01:00:00 7 4 Oeste 9 Oeste 0 940 1.1 90
2018-11-13 00:00:00 7.9 2 Noroeste 10 Noroeste 0 939.3 1 89
2018-11-12 23:00:00 8.5 6 Noroeste 11 Noroeste 0 939.4 1.8 86
2018-11-12 22:00:00 9.6 4 Noroeste 15 Noroeste 0 938.9 2.1 85
2018-11-12 21:00:00 10.5 12 Noroeste 17 Norte 0 938.3 2.1 78
2018-11-12 20:00:00 12.1 6 Oeste 17 Oeste 0 937.6 2 71
2018-11-12 19:00:00 13.6 2 Sudeste 17 Sur 0 936.8 1.4 66
2018-11-12 18:00:00 15.2 -- -- -- -- 0 936.2 0.6 57
2018-11-12 17:00:00 16.2 -- -- -- -- 0 935.6 -0.2 52
2018-11-12 16:00:00 16.1 11 Sudeste 25 Sudeste 0 935.4 -0.7 48
2018-11-12 15:00:00 15.8 5 Norte 24 Noroeste 0 935.6 -0.9 63
2018-11-12 14:00:00 15.3 9 Noroeste 20 Norte 0 935.8 0.1 65
2018-11-12 13:00:00 15 13 Noroeste 22 Norte 0 936.1 0.7 71
2018-11-12 12:00:00 14.5 8 Sudeste 22 Sur 0 936.5 1.9 69
2018-11-12 11:00:00 14.4 6 Sur 18 Sudeste 0 935.7 2 71
2018-11-12 10:00:00 11.7 8 Sur -- -- 0 935.4 2.3 85
2018-11-12 09:00:00 9.6 9 Sudeste -- -- 0 934.6 1.3 91
2018-11-12 08:00:00 8.2 10 Sudeste -- -- 0 933.7 0 90
2018-11-12 07:00:00 7.9 13 Sudeste 29 Sudeste 0 933.1 -0.3 91
2018-11-12 06:00:00 8 12 Sudeste -- -- 0 933.3 0.1 91
2018-11-12 05:00:00 7.5 5 Sudeste 26 Este 0 933.7 0.6 89
2018-11-12 04:00:00 8 13 Este 24 Este 0 933.4 0.2 89
2018-11-12 03:00:00 9.7 6 Sur 16 Sudeste 0 933.2 0.3 89
2018-11-12 02:00:00 9.4 7 Sudeste 21 Este 0 933.1 0.5 88
2018-11-12 01:00:00 10 -- -- -- -- 0 933.2 0.5 87
2018-11-12 00:00:00 9.8 5 Sudoeste 12 Sudeste 0 932.9 0.5 87
2018-11-11 23:00:00 9.8 6 Sudoeste 12 Sudeste 0 932.6 0.3 87
2018-11-11 22:00:00 9.5 5 Noroeste 17 Norte 0 932.7 0.4 84
2018-11-11 21:00:00 12.2 2 Sur 15 Sur 0 932.4 0 77
2018-11-11 20:00:00 12.8 6 Sudeste 13 Sur 0 932.3 -0.1 77
2018-11-11 19:00:00 14.2 5 Este -- -- 0 932.3 -0.4 74
2018-11-11 18:00:00 16.4 8 Sur 27 Sur 0 932.4 -1 66
2018-11-11 17:00:00 16.7 15 Sur 44 Sur 0 932.4 -2 63
2018-11-11 16:00:00 16.8 14 Sur 39 Sur 0 932.7 -2.6 64
2018-11-11 15:00:00 17 13 Sur 33 Sudoeste 0 933.4 -2.7 67
2018-11-11 14:00:00 15.1 13 Sudeste 25 Sudeste 0 934.4 -2.1 77
2018-11-11 13:00:00 15.2 13 Sudeste 27 Sudeste 0 935.3 -1.2 75
2018-11-11 12:00:00 15.4 11 Sudoeste 35 Sur 0 936.1 0 73
2018-11-11 11:00:00 14.3 13 Sudoeste 34 Sur 0 936.5 1 79
2018-11-11 10:00:00 12.3 6 Sur 16 Sudeste 0 936.5 1 89
2018-11-11 09:00:00 12 5 Sudeste 15 Sudeste 0 936.1 0.9 88
2018-11-11 08:00:00 11.8 9 Sudoeste 20 Sudoeste 0 935.5 0 87
2018-11-11 07:00:00 12.2 12 Sudoeste 30 Sudoeste 0 935.5 -0.3 89
2018-11-11 06:00:00 11.8 7 Sur 15 Sudeste 0 935.2 -0.6 90
2018-11-11 05:00:00 12.1 9 Sudeste 30 Sudoeste 0 935.5 -0.5 87
2018-11-11 04:00:00 12.1 13 Sudoeste 32 Sudoeste 0 935.8 -0.5 87
2018-11-11 03:00:00 12 10 Sur 36 Sur 0 935.8 -0.4 87
2018-11-11 02:00:00 12.1 13 Sur -- -- 0 936 -0.5 86
2018-11-11 01:00:00 12 18 Sur -- -- 0 936.3 0.2 86
2018-11-11 00:00:00 11.8 19 Sudoeste -- -- 0 936.2 0 86
2018-11-10 23:00:00 11.9 -- -- -- -- 0 936.5 0.5 84
2018-11-10 22:00:00 11.7 15 Sur -- -- 0 936.1 0.4 84
2018-11-10 21:00:00 11.6 15 Sur 37 Sur 0 936.2 0.9 83
2018-11-10 20:00:00 11.7 16 Sur -- -- 0 936 0.7 82
2018-11-10 19:00:00 11.7 20 Sudoeste 38 Sur 0 935.7 0.6 81
2018-11-10 18:00:00 12.1 19 Sur 44 Sudoeste 0 935.3 -0.1 79
2018-11-10 17:00:00 12.7 24 Sudoeste 46 Sudoeste 0 935.3 -0.4 78
2018-11-10 16:00:00 12.9 24 Sudoeste 46 Sudoeste 0 935.1 -1.2 77
2018-11-10 15:00:00 12.5 24 Sudoeste 52 Sudoeste 0 935.4 -1.4 78
2018-11-10 14:00:00 12.1 22 Sudoeste 49 Sudoeste 0 935.7 -1.7 78
2018-11-10 13:00:00 12 20 Sudoeste 54 Sudoeste 0 936.3 -1.1 78
2018-11-10 12:00:00 11.5 24 Sudoeste 47 Sudoeste 0 936.8 -0.2 80
2018-11-10 11:00:00 10.8 13 Sur 38 Sudoeste 0 937.4 0.5 81
2018-11-10 10:00:00 10.4 14 Sudoeste 34 Sudoeste 0 937.4 0.6 83
2018-11-10 09:00:00 9.6 22 Sudoeste 34 Sudoeste 0 937 0 85
2018-11-10 08:00:00 9.4 17 Sudoeste 29 Sudoeste 0 936.9 -0.5 85
2018-11-10 07:00:00 9.3 18 Sudoeste 32 Sudoeste 0 936.8 -1.2 85
2018-11-10 06:00:00 9.4 17 Sudoeste 31 Sur 0 937 -1.4 84
2018-11-10 05:00:00 9.4 15 Sudoeste 32 Sudoeste 0 937.4 -1.1 83
2018-11-10 04:00:00 9.3 13 Sudoeste 32 Sur 0 938 -1 81
2018-11-10 03:00:00 9.1 10 Sudoeste 34 Sudoeste 0 938.4 -1 80
2018-11-10 02:00:00 9.3 19 Sudoeste 36 Sudoeste 0 938.5 -1 80
2018-11-10 01:00:00 9.3 15 Sudoeste 34 Sudoeste 0 939 -0.7 80
2018-11-10 00:00:00 9.3 18 Sudoeste 35 Sudoeste 0 939.4 -0.3 78